createdAt,value
2023-11-10T00:01:24.379Z,90230.19
2023-11-10T00:04:09.605Z,90213.75
2023-11-10T00:06:54.849Z,90212.81
2023-11-10T00:09:39.874Z,90216.09
2023-11-10T00:12:24.922Z,90206.88
2023-11-10T00:15:10.027Z,90217.16
2023-11-10T00:17:54.633Z,90203.91
2023-11-10T00:20:39.586Z,90202.34
2023-11-10T00:23:24.658Z,90192.34
2023-11-10T00:26:09.655Z,90186.06
2023-11-10T00:28:54.617Z,90201.34
2023-11-10T00:31:39.655Z,90190.63
2023-11-10T00:34:24.586Z,90202.72
2023-11-10T00:37:09.589Z,90198.66
2023-11-10T00:39:54.479Z,90199.84
2023-11-10T00:42:39.542Z,90189.34
2023-11-10T00:45:24.414Z,90180.78
2023-11-10T00:48:09.539Z,90174.75
2023-11-10T00:50:54.437Z,90178.00
2023-11-10T00:53:39.612Z,90174.41
2023-11-10T00:56:24.744Z,90175.59
2023-11-10T00:59:09.657Z,90165.78
2023-11-10T01:01:54.731Z,90156.91
2023-11-10T01:04:39.584Z,90142.94
2023-11-10T01:07:24.657Z,90144.28
2023-11-10T01:10:09.788Z,90125.97
2023-11-10T01:12:54.664Z,90128.00
2023-11-10T01:15:39.528Z,90117.16
2023-11-10T01:18:24.477Z,90115.72
2023-11-10T01:21:09.548Z,90116.59
2023-11-10T01:23:54.445Z,90110.34
2023-11-10T01:26:39.419Z,90112.13
2023-11-10T01:29:24.251Z,90106.75
2023-11-10T01:32:09.275Z,90113.72
2023-11-10T01:34:54.196Z,90110.31
2023-11-10T01:37:38.987Z,90092.72
2023-11-10T01:40:24.052Z,90098.88
2023-11-10T01:43:09.054Z,90097.19
2023-11-10T01:45:53.964Z,90100.47
2023-11-10T01:48:38.877Z,90108.00
2023-11-10T01:51:23.833Z,90110.66
2023-11-10T01:54:08.809Z,90112.84
2023-11-10T01:56:53.698Z,90116.13
2023-11-10T01:59:38.856Z,90131.13
2023-11-10T02:02:23.864Z,90149.03
2023-11-10T02:05:08.862Z,90148.59
2023-11-10T02:07:53.781Z,90159.19
2023-11-10T02:10:38.779Z,90157.03
2023-11-10T02:13:23.733Z,90148.84
2023-11-10T02:16:08.657Z,90145.66
2023-11-10T02:18:53.602Z,90147.25
2023-11-10T02:21:38.638Z,90138.47
2023-11-10T02:24:23.594Z,90129.41
2023-11-10T02:27:08.396Z,90134.41
2023-11-10T02:29:53.477Z,90125.06
2023-11-10T02:32:38.542Z,90115.75
2023-11-10T02:35:23.490Z,90116.19
2023-11-10T02:38:08.449Z,90111.16
2023-11-10T02:40:53.513Z,90103.66
2023-11-10T02:43:38.585Z,90103.03
2023-11-10T02:46:23.424Z,90099.72
2023-11-10T02:49:08.388Z,90093.66
2023-11-10T02:51:53.335Z,90087.31
2023-11-10T02:54:38.346Z,90092.06
2023-11-10T02:57:23.491Z,90086.66
2023-11-10T03:00:08.222Z,90079.31
2023-11-10T03:02:53.173Z,90076.38
2023-11-10T03:05:38.223Z,90074.53
2023-11-10T03:08:23.231Z,90067.78
2023-11-10T03:11:08.141Z,90075.63
2023-11-10T03:13:53.178Z,90070.91
2023-11-10T03:16:38.157Z,90069.44
2023-11-10T03:19:23.113Z,90067.94
2023-11-10T03:22:07.971Z,90065.50
2023-11-10T03:24:52.821Z,90068.75
2023-11-10T03:27:37.888Z,90062.09
2023-11-10T03:30:22.941Z,90064.66
2023-11-10T03:33:07.771Z,90058.81
2023-11-10T03:35:52.609Z,90063.75
2023-11-10T03:38:37.732Z,90066.41
2023-11-10T03:41:22.690Z,90068.56
2023-11-10T03:44:07.724Z,90074.28
2023-11-10T03:46:52.592Z,90072.09
2023-11-10T03:49:37.474Z,90072.19
2023-11-10T03:52:22.313Z,90064.50
2023-11-10T03:55:07.169Z,90064.59
2023-11-10T03:57:52.070Z,90051.31
2023-11-10T04:00:45.726Z,90056.78
2023-11-10T04:03:33.578Z,90052.88
2023-11-10T04:06:25.867Z,90062.72
2023-11-10T04:09:16.184Z,90050.41
2023-11-10T04:12:01.121Z,90041.97
2023-11-10T04:14:46.078Z,90043.69
2023-11-10T04:17:31.115Z,90042.06
2023-11-10T04:20:15.944Z,90042.84
2023-11-10T04:23:00.838Z,90041.72
2023-11-10T04:25:45.875Z,90023.41
2023-11-10T04:28:30.801Z,90028.47
2023-11-10T04:31:15.991Z,90033.13
2023-11-10T04:34:00.957Z,90031.16
2023-11-10T04:36:46.042Z,90027.19
2023-11-10T04:39:30.938Z,90017.28
2023-11-10T04:42:15.952Z,90015.50
2023-11-10T04:45:01.008Z,90007.22
2023-11-10T04:47:45.955Z,90000.63
2023-11-10T04:50:30.978Z,90006.69
2023-11-10T04:53:15.928Z,90005.06
2023-11-10T04:56:00.893Z,90002.41
2023-11-10T04:58:45.700Z,90007.47
2023-11-10T05:01:30.696Z,89999.38
2023-11-10T05:04:15.687Z,90012.41
2023-11-10T05:07:00.500Z,90008.50
2023-11-10T05:09:45.686Z,90008.97
2023-11-10T05:12:30.677Z,90015.44
2023-11-10T05:15:15.656Z,90008.25
2023-11-10T05:18:00.662Z,90005.41
2023-11-10T05:20:45.636Z,90000.81
2023-11-10T05:23:30.565Z,90004.69
2023-11-10T05:26:15.639Z,89995.69
2023-11-10T05:29:00.729Z,89990.91
2023-11-10T05:31:45.492Z,89990.72
2023-11-10T05:34:30.483Z,89984.44
2023-11-10T05:37:15.331Z,89981.00
2023-11-10T05:40:00.340Z,89989.63
2023-11-10T05:42:45.235Z,89975.00
2023-11-10T05:45:30.155Z,89972.53
2023-11-10T05:48:15.182Z,89980.41
2023-11-10T05:50:59.998Z,89979.13
2023-11-10T05:53:45.157Z,89977.22
2023-11-10T05:56:30.142Z,89981.25
2023-11-10T05:59:15.158Z,89969.13
2023-11-10T06:02:00.035Z,89969.53
2023-11-10T06:04:45.150Z,89974.41
2023-11-10T06:07:29.963Z,89983.28
2023-11-10T06:10:15.064Z,89981.00
2023-11-10T06:13:00.039Z,89988.09
2023-11-10T06:15:44.979Z,89982.38
2023-11-10T06:18:30.082Z,89981.41
2023-11-10T06:21:15.020Z,89981.53
2023-11-10T06:23:59.814Z,89987.47
2023-11-10T06:26:44.791Z,89997.97
2023-11-10T06:29:29.880Z,89994.16
2023-11-10T06:32:14.766Z,89993.38
2023-11-10T06:34:59.898Z,90002.84
2023-11-10T06:37:44.920Z,89992.84
2023-11-10T06:40:30.743Z,90001.34
2023-11-10T06:43:15.484Z,90008.59
2023-11-10T06:46:00.499Z,90009.75
2023-11-10T06:48:45.608Z,90010.63
2023-11-10T06:51:30.452Z,90010.03
2023-11-10T06:54:15.474Z,90017.84
2023-11-10T06:57:00.473Z,90011.63
2023-11-10T06:59:45.382Z,90008.19
2023-11-10T07:02:30.391Z,89995.94
2023-11-10T07:05:15.343Z,90003.25
2023-11-10T07:08:00.469Z,90002.09
2023-11-10T07:10:46.245Z,90000.50
2023-11-10T07:13:31.571Z,90007.56
2023-11-10T07:16:16.794Z,90007.41
2023-11-10T07:19:01.830Z,90012.34
2023-11-10T07:21:46.782Z,90016.28
2023-11-10T07:24:31.772Z,90015.66
2023-11-10T07:27:16.873Z,90030.03
2023-11-10T07:30:01.858Z,90036.78
2023-11-10T07:32:46.933Z,90041.41
2023-11-10T07:35:31.895Z,90050.78
2023-11-10T07:38:16.928Z,90046.81
2023-11-10T07:41:02.013Z,90054.09
2023-11-10T07:43:46.936Z,90054.50
2023-11-10T07:46:32.091Z,90053.38
2023-11-10T07:49:16.972Z,90049.69
2023-11-10T07:52:02.018Z,90046.56
2023-11-10T07:54:57.669Z,90042.06
2023-11-10T07:57:44.828Z,90035.59
2023-11-10T08:00:29.482Z,90027.72
2023-11-10T08:03:14.489Z,90033.63
2023-11-10T08:05:59.491Z,90037.78
2023-11-10T08:08:44.479Z,90034.81
2023-11-10T08:11:32.398Z,90039.03
2023-11-10T08:14:19.117Z,90048.38
2023-11-10T08:17:04.017Z,90044.66
2023-11-10T08:19:49.077Z,90050.59
2023-11-10T08:22:34.107Z,90058.66
2023-11-10T08:25:19.199Z,90048.00
2023-11-10T08:28:04.317Z,90050.31
2023-11-10T08:30:49.416Z,90041.88
2023-11-10T08:33:34.315Z,90045.03
2023-11-10T08:36:19.365Z,90046.66
2023-11-10T08:39:04.293Z,90048.50
2023-11-10T08:41:49.456Z,90054.44
2023-11-10T08:44:34.491Z,90053.00
2023-11-10T08:47:19.463Z,90055.06
2023-11-10T08:50:04.470Z,90052.13
2023-11-10T08:52:49.367Z,90053.56
2023-11-10T08:55:34.388Z,90053.22
2023-11-10T08:58:19.465Z,90049.25
2023-11-10T09:01:04.441Z,90049.44
2023-11-10T09:03:49.394Z,90061.84
2023-11-10T09:06:34.281Z,90054.28
2023-11-10T09:09:19.370Z,90064.78
2023-11-10T09:12:04.249Z,90061.09
2023-11-10T09:14:49.349Z,90068.13
2023-11-10T09:17:34.244Z,90066.25
2023-11-10T09:20:19.303Z,90070.19
2023-11-10T09:23:04.354Z,90070.81
2023-11-10T09:25:49.417Z,90061.22
2023-11-10T09:28:34.514Z,90065.69
2023-11-10T09:31:19.422Z,90071.81
2023-11-10T09:34:06.063Z,90073.22
2023-11-10T09:36:50.931Z,90078.66
2023-11-10T09:39:35.923Z,90089.09
2023-11-10T09:42:20.840Z,90087.19
2023-11-10T09:45:05.823Z,90069.94
2023-11-10T09:47:51.068Z,90069.94
2023-11-10T09:50:35.996Z,90070.38
2023-11-10T09:53:21.085Z,90053.13
2023-11-10T09:56:06.023Z,90062.34
2023-11-10T09:58:51.020Z,90072.38
2023-11-10T10:01:35.932Z,90068.78
2023-11-10T10:04:20.982Z,90064.72
2023-11-10T10:07:06.033Z,90068.66
2023-11-10T10:09:50.865Z,90068.03
2023-11-10T10:12:35.847Z,90073.56
2023-11-10T10:15:21.942Z,90074.69
2023-11-10T10:18:06.909Z,90065.06
2023-11-10T10:20:51.915Z,90065.09
2023-11-10T10:23:36.884Z,90057.56
2023-11-10T10:26:21.785Z,90048.41
2023-11-10T10:29:06.741Z,90052.06
2023-11-10T10:31:51.791Z,90050.47
2023-11-10T10:34:36.507Z,90051.41
2023-11-10T10:37:21.337Z,90060.44
2023-11-10T10:40:06.264Z,90057.69
2023-11-10T10:42:51.270Z,90056.44
2023-11-10T10:45:36.256Z,90050.59
2023-11-10T10:48:21.065Z,90044.53
2023-11-10T10:51:06.035Z,90036.50
2023-11-10T10:53:50.968Z,90042.84
2023-11-10T10:56:44.173Z,90035.81
2023-11-10T10:59:30.647Z,90035.00
2023-11-10T11:02:15.615Z,90031.28
2023-11-10T11:05:00.654Z,90048.91
2023-11-10T11:07:45.473Z,90047.97
2023-11-10T11:10:30.429Z,90043.78
2023-11-10T11:13:15.406Z,90042.69
2023-11-10T11:16:00.401Z,90046.38
2023-11-10T11:18:45.264Z,90039.34
2023-11-10T11:21:30.297Z,90039.19
2023-11-10T11:24:15.296Z,90030.44
2023-11-10T11:27:00.244Z,90027.81
2023-11-10T11:29:45.132Z,90034.69
2023-11-10T11:32:30.025Z,90033.34
2023-11-10T11:35:14.964Z,90030.22
2023-11-10T11:38:00.054Z,90031.06
2023-11-10T11:40:45.043Z,90030.44
2023-11-10T11:43:29.993Z,90023.59
2023-11-10T11:46:14.937Z,90021.75
2023-11-10T11:48:59.750Z,90014.56
2023-11-10T11:51:44.650Z,90008.19
2023-11-10T11:54:29.755Z,90006.88
2023-11-10T11:57:14.652Z,89998.22
2023-11-10T11:59:59.790Z,90004.75
2023-11-10T12:02:44.906Z,90001.66
2023-11-10T12:05:29.785Z,89997.34
2023-11-10T12:08:14.674Z,89995.41
2023-11-10T12:10:59.790Z,90001.63
2023-11-10T12:13:44.790Z,89990.69
2023-11-10T12:19:19.312Z,89976.56
2023-11-10T12:22:04.868Z,89976.63
2023-11-10T12:24:49.907Z,89965.22
2023-11-10T12:27:34.767Z,89957.91
2023-11-10T12:30:19.726Z,89957.91
2023-11-10T12:33:04.729Z,89957.06
2023-11-10T12:35:49.660Z,89977.53
2023-11-10T12:38:34.627Z,89977.00
2023-11-10T12:41:19.642Z,89968.81
2023-11-10T12:44:04.626Z,89969.84
2023-11-10T12:46:49.661Z,89982.81
2023-11-10T12:49:34.482Z,89985.97
2023-11-10T12:52:19.547Z,89988.63
2023-11-10T12:55:04.592Z,89983.31
2023-11-10T12:57:49.352Z,89985.09
2023-11-10T13:00:34.363Z,89984.06
2023-11-10T13:03:19.619Z,89983.38
2023-11-10T13:06:04.475Z,89979.56
2023-11-10T13:08:49.319Z,89996.88
2023-11-10T13:11:34.372Z,89996.59
2023-11-10T13:14:19.363Z,89992.31
2023-11-10T13:17:04.329Z,89992.97
2023-11-10T13:19:49.412Z,89994.16
2023-11-10T13:22:34.312Z,89998.78
2023-11-10T13:25:19.445Z,89999.56
2023-11-10T13:28:04.391Z,90003.69
2023-11-10T13:30:49.457Z,89998.03
2023-11-10T13:33:34.368Z,90000.38
2023-11-10T13:36:19.409Z,89999.25
2023-11-10T13:39:04.352Z,90004.09
2023-11-10T13:41:50.170Z,90005.63
2023-11-10T13:44:35.469Z,90000.72
2023-11-10T13:47:20.402Z,89998.59
2023-11-10T13:50:05.414Z,89998.78
2023-11-10T13:52:50.454Z,90003.56
2023-11-10T13:55:35.524Z,90009.50
2023-11-10T13:58:20.590Z,90013.63
2023-11-10T14:01:05.500Z,90014.47
2023-11-10T14:03:50.750Z,90018.72
2023-11-10T14:06:35.440Z,90025.00
2023-11-10T14:09:20.407Z,90024.66
2023-11-10T14:12:05.281Z,90030.66
2023-11-10T14:14:50.388Z,90034.81
2023-11-10T14:17:35.353Z,90034.06
2023-11-10T14:20:20.172Z,90027.09
2023-11-10T14:23:05.082Z,90032.44
2023-11-10T14:25:50.063Z,90053.06
2023-11-10T14:28:35.222Z,90047.53
2023-11-10T14:31:20.242Z,90044.38
2023-11-10T14:34:05.529Z,90051.16
2023-11-10T14:36:50.445Z,90059.50
2023-11-10T14:39:35.577Z,90067.16
2023-11-10T14:42:20.592Z,90077.16
2023-11-10T14:45:05.543Z,90080.25
2023-11-10T14:47:50.508Z,90078.09
2023-11-10T14:50:35.537Z,90082.78
2023-11-10T14:53:20.445Z,90071.75
2023-11-10T14:56:05.409Z,90074.69
2023-11-10T14:58:50.479Z,90067.63
2023-11-10T15:01:35.368Z,90057.06
2023-11-10T15:04:20.399Z,90060.00
2023-11-10T15:07:05.360Z,90054.88
2023-11-10T15:09:50.323Z,90052.28
2023-11-10T15:12:35.450Z,90051.66
2023-11-10T15:15:20.248Z,90049.50
2023-11-10T15:18:05.470Z,90054.56
2023-11-10T15:20:50.292Z,90054.25
2023-11-10T15:23:35.283Z,90054.38
2023-11-10T15:26:20.288Z,90065.16
2023-11-10T15:29:05.323Z,90054.56
2023-11-10T15:31:50.471Z,90067.22
2023-11-10T15:34:35.460Z,90070.72
2023-11-10T15:37:20.563Z,90071.31
2023-11-10T15:40:05.387Z,90073.19
2023-11-10T15:42:50.452Z,90075.56
2023-11-10T15:45:35.409Z,90067.72
2023-11-10T15:48:20.492Z,90068.56
2023-11-10T15:51:06.503Z,90064.16
2023-11-10T15:53:51.471Z,90060.84
2023-11-10T15:56:36.412Z,90065.44
2023-11-10T15:59:21.383Z,90066.00
2023-11-10T16:02:06.450Z,90068.63
2023-11-10T16:04:51.238Z,90065.94
2023-11-10T16:07:36.242Z,90068.00
2023-11-10T16:10:23.157Z,90073.56
2023-11-10T16:13:09.278Z,90077.78
2023-11-10T16:15:54.253Z,90078.97
2023-11-10T16:18:39.185Z,90082.66
2023-11-10T16:21:24.100Z,90080.47
2023-11-10T16:24:09.088Z,90069.06
2023-11-10T16:26:54.000Z,90072.47
2023-11-10T16:29:39.024Z,90072.22
2023-11-10T16:32:23.994Z,90083.28
2023-11-10T16:35:09.179Z,90078.75
2023-11-10T16:37:54.145Z,90088.59
2023-11-10T16:40:39.156Z,90079.56
2023-11-10T16:43:23.961Z,90081.75
2023-11-10T16:46:09.010Z,90080.56
2023-11-10T16:48:53.867Z,90093.91
2023-11-10T16:51:38.933Z,90096.94
2023-11-10T16:54:23.862Z,90100.47
2023-11-10T16:57:08.822Z,90105.16
2023-11-10T16:59:53.926Z,90105.78
2023-11-10T17:02:45.187Z,90102.94
2023-11-10T17:05:31.170Z,90102.38
2023-11-10T17:08:16.452Z,90101.16
2023-11-10T17:11:01.462Z,90104.03
2023-11-10T17:13:46.454Z,90114.91
2023-11-10T17:16:31.510Z,90119.50
2023-11-10T17:19:16.409Z,90111.13
2023-11-10T17:22:01.329Z,90102.31
2023-11-10T17:24:46.094Z,90102.16
2023-11-10T17:27:31.137Z,90104.69
2023-11-10T17:30:16.034Z,90104.19
2023-11-10T17:33:01.022Z,90108.41
2023-11-10T17:35:45.890Z,90111.00
2023-11-10T17:38:30.834Z,90104.53
2023-11-10T17:41:15.918Z,90111.22
2023-11-10T17:44:00.888Z,90103.63
2023-11-10T17:46:45.986Z,90110.53
2023-11-10T17:49:30.757Z,90111.94
2023-11-10T17:52:15.777Z,90112.09
2023-11-10T17:55:00.720Z,90110.69
2023-11-10T17:57:45.624Z,90104.41
2023-11-10T18:00:30.470Z,90097.66
2023-11-10T18:03:15.402Z,90099.44
2023-11-10T18:06:00.895Z,90102.03
2023-11-10T18:08:46.340Z,90093.50
2023-11-10T18:11:31.455Z,90101.31
2023-11-10T18:14:16.348Z,90084.66
2023-11-10T18:17:01.415Z,90091.41
2023-11-10T18:19:46.417Z,90084.59
2023-11-10T18:22:31.299Z,90088.97
2023-11-10T18:25:16.327Z,90089.13
2023-11-10T18:28:01.276Z,90109.03
2023-11-10T18:30:46.445Z,90115.19
2023-11-10T18:33:31.235Z,90121.66
2023-11-10T18:36:16.104Z,90113.56
2023-11-10T18:39:01.000Z,90127.06
2023-11-10T18:41:46.029Z,90122.13
2023-11-10T18:44:30.998Z,90112.41
2023-11-10T18:47:16.011Z,90109.00
2023-11-10T18:50:00.990Z,90100.66
2023-11-10T18:52:45.880Z,90090.41
2023-11-10T18:55:30.876Z,90085.91
2023-11-10T18:58:15.929Z,90061.94
2023-11-10T19:01:01.053Z,90054.91
2023-11-10T19:03:45.929Z,90057.13
2023-11-10T19:06:30.928Z,90042.16
2023-11-10T19:09:15.897Z,90036.28
2023-11-10T19:12:00.753Z,90048.25
2023-11-10T19:14:45.881Z,90045.38
2023-11-10T19:17:30.805Z,90039.78
2023-11-10T19:20:15.831Z,90045.28
2023-11-10T19:23:00.639Z,90049.53
2023-11-10T19:25:45.702Z,90051.66
2023-11-10T19:28:30.606Z,90065.06
2023-11-10T19:31:15.632Z,90073.09
2023-11-10T19:34:00.648Z,90072.56
2023-11-10T19:36:45.541Z,90089.28
2023-11-10T19:39:30.476Z,90094.19
2023-11-10T19:42:15.445Z,90106.69
2023-11-10T19:45:00.530Z,90117.94
2023-11-10T19:47:48.198Z,90135.59
2023-11-10T19:50:34.439Z,90147.78
2023-11-10T19:53:19.908Z,90153.28
2023-11-10T19:56:05.221Z,90154.75
2023-11-10T20:01:37.580Z,90146.16
2023-11-10T20:04:22.442Z,90133.22
2023-11-10T20:07:07.452Z,90132.00
2023-11-10T20:09:52.308Z,90139.09
2023-11-10T20:12:37.389Z,90137.22
2023-11-10T20:15:22.301Z,90144.69
2023-11-10T20:18:07.344Z,90143.13
2023-11-10T20:20:52.290Z,90134.25
2023-11-10T20:23:37.315Z,90124.44
2023-11-10T20:26:22.436Z,90128.47
2023-11-10T20:29:07.332Z,90116.63
2023-11-10T20:31:52.320Z,90114.38
2023-11-10T20:34:37.346Z,90107.81
2023-11-10T20:37:22.290Z,90104.63
2023-11-10T20:40:07.351Z,90099.22
2023-11-10T20:42:52.356Z,90094.69
2023-11-10T20:45:37.527Z,90090.41
2023-11-10T20:48:22.368Z,90094.38
2023-11-10T20:51:07.506Z,90099.38
2023-11-10T20:53:52.367Z,90099.75
2023-11-10T20:56:37.210Z,90114.97
2023-11-10T20:59:22.097Z,90122.34
2023-11-10T21:02:07.131Z,90124.28
2023-11-10T21:04:53.908Z,90132.16
2023-11-10T21:07:39.426Z,90122.13
2023-11-10T21:10:24.570Z,90132.69
2023-11-10T21:13:09.414Z,90131.06
2023-11-10T21:15:54.338Z,90119.47
2023-11-10T21:18:39.299Z,90108.44
2023-11-10T21:21:24.192Z,90101.00
2023-11-10T21:24:09.252Z,90112.06
2023-11-10T21:26:54.178Z,90113.91
2023-11-10T21:29:39.154Z,90111.34
2023-11-10T21:32:24.180Z,90120.47
2023-11-10T21:35:09.207Z,90101.38
2023-11-10T21:37:54.207Z,90102.28
2023-11-10T21:40:39.283Z,90113.34
2023-11-10T21:43:24.197Z,90115.34
2023-11-10T21:46:09.178Z,90100.91
2023-11-10T21:48:54.182Z,90107.09
2023-11-10T21:51:39.159Z,90099.91
2023-11-10T21:54:24.227Z,90090.38
2023-11-10T21:57:09.048Z,90080.44
2023-11-10T21:59:54.069Z,90077.28
2023-11-10T22:02:39.016Z,90086.44
2023-11-10T22:05:24.074Z,90072.88
2023-11-10T22:08:09.082Z,90082.03
2023-11-10T22:10:54.027Z,90076.31
2023-11-10T22:13:38.991Z,90080.59
2023-11-10T22:16:23.964Z,90094.44
2023-11-10T22:19:08.923Z,90086.19
2023-11-10T22:21:53.708Z,90078.53
2023-11-10T22:24:38.778Z,90067.66
2023-11-10T22:27:23.637Z,90061.28
2023-11-10T22:30:08.985Z,90060.66
2023-11-10T22:32:53.745Z,90057.78
2023-11-10T22:35:38.523Z,90065.53
2023-11-10T22:38:23.479Z,90067.31
2023-11-10T22:41:08.389Z,90084.38
2023-11-10T22:43:53.418Z,90089.78
2023-11-10T22:46:41.356Z,90095.78
2023-11-10T22:49:26.545Z,90095.25
2023-11-10T22:52:11.572Z,90089.69
2023-11-10T22:54:56.425Z,90089.88
2023-11-10T22:57:41.712Z,90072.78
2023-11-10T23:00:28.186Z,90074.94
2023-11-10T23:03:13.628Z,90083.81
2023-11-10T23:05:58.446Z,90090.66
2023-11-10T23:08:43.551Z,90092.00
2023-11-10T23:11:28.604Z,90056.44
2023-11-10T23:14:13.616Z,90073.44
2023-11-10T23:16:58.660Z,90074.50
2023-11-10T23:19:43.576Z,90082.50
2023-11-10T23:22:28.371Z,90071.34
2023-11-10T23:25:13.370Z,90058.16
2023-11-10T23:27:58.456Z,90061.03
2023-11-10T23:30:43.433Z,90062.25
2023-11-10T23:33:28.270Z,90075.22
2023-11-10T23:36:13.341Z,90083.31
2023-11-10T23:38:58.269Z,90065.78
2023-11-10T23:41:43.340Z,90059.16
2023-11-10T23:44:28.305Z,90060.50
2023-11-10T23:47:13.318Z,90060.56
2023-11-10T23:49:58.228Z,90050.97
2023-11-10T23:52:43.190Z,90076.72
2023-11-10T23:55:28.208Z,90076.78
2023-11-10T23:58:13.162Z,90088.84
